Time;durP1;ratioP1;P1;durP2;ratioP2;P2;SDS_P1;SDS_P2;PMS_P1;PMS_P2;Temp;Humidity;BMP_temperature;BMP_pressure;BME280_temperature;BME280_humidity;BME280_pressure;Samples;Min_cycle;Max_cycle;Signal;HPM_P1;HPM_P2
2023/06/05 00:01:35;;;;;;;6.75;3.30;;;;;;;14.92;100.00;94523.09;5039453;28;20472;-81
2023/06/05 00:04:00;;;;;;;7.65;4.00;;;;;;;14.98;100.00;94524.56;5056128;28;20032;-84
2023/06/05 00:06:45;;;;;;;7.93;3.83;;;;;;;14.55;100.00;94525.53;5073415;28;20036;-81
2023/06/05 00:09:12;;;;;;;11.98;4.70;;;;;;;14.35;100.00;94520.56;5056505;28;20031;-81
2023/06/05 00:14:22;;;;;;;6.93;4.03;;;;;;;13.75;100.00;94512.16;5058775;28;20396;-81
2023/06/05 00:16:49;;;;;;;7.95;4.60;;;;;;;13.80;100.00;94506.06;5055501;28;20041;-83
2023/06/05 00:19:34;;;;;;;8.10;4.57;;;;;;;14.54;100.00;94508.13;5056032;28;20039;-81
2023/06/05 00:22:00;;;;;;;5.60;3.65;;;;;;;14.78;100.00;94509.09;5055828;28;20025;-81
2023/06/05 00:24:26;;;;;;;5.80;3.65;;;;;;;14.97;100.00;94504.53;5055816;28;20040;-81
2023/06/05 00:26:51;;;;;;;8.52;3.90;;;;;;;15.07;100.00;94506.22;5055602;28;20034;-81
2023/06/05 00:29:55;;;;;;;8.88;3.47;;;;;;;15.23;100.00;94505.94;5073410;28;20028;-83
2023/06/05 00:32:20;;;;;;;6.93;4.05;;;;;;;15.18;100.00;94503.38;5059228;28;20750;-81
2023/06/05 00:34:46;;;;;;;7.15;3.70;;;;;;;15.12;100.00;94498.22;5045049;28;20119;-81
2023/06/05 00:37:13;;;;;;;5.15;3.60;;;;;;;15.31;100.00;94505.25;5049981;28;20024;-81
2023/06/05 00:39:57;;;;;;;6.80;3.90;;;;;;;14.60;100.00;94492.22;5040244;28;20025;-81
2023/06/05 00:42:22;;;;;;;7.95;3.78;;;;;;;13.99;100.00;94495.53;5054846;28;20501;-81
2023/06/05 00:44:48;;;;;;;8.40;3.67;;;;;;;14.77;100.00;94497.75;5048295;28;20126;-81
2023/06/05 00:47:14;;;;;;;5.75;3.50;;;;;;;14.90;100.00;94493.59;5043838;28;20040;-81
2023/06/05 00:49:39;;;;;;;7.97;4.18;;;;;;;14.98;100.00;94492.13;5037197;28;20086;-81
2023/06/05 00:52:05;;;;;;;8.68;4.20;;;;;;;15.08;100.00;94496.44;5040527;28;20025;-81
2023/06/05 00:54:33;;;;;;;6.47;3.97;;;;;;;14.44;100.00;94495.13;5024525;28;20427;-81
2023/06/05 00:57:00;;;;;;;7.20;4.00;;;;;;;14.45;100.00;94494.03;5024021;28;20029;-81
2023/06/05 00:59:26;;;;;;;8.88;3.47;;;;;;;14.87;100.00;94493.38;5024191;28;20099;-81
2023/06/05 01:01:54;;;;;;;6.22;3.67;;;;;;;14.98;100.00;94498.19;5053538;28;20029;-81
2023/06/05 01:04:19;;;;;;;7.30;3.78;;;;;;;14.96;100.00;94484.50;5062487;28;20081;-81
2023/06/05 01:06:45;;;;;;;9.15;4.20;;;;;;;13.97;100.00;94485.28;5045101;28;20036;-81
2023/06/05 01:09:13;;;;;;;7.28;3.97;;;;;;;13.73;100.00;94479.28;5062058;28;20028;-81
2023/06/05 01:11:58;;;;;;;11.30;4.80;;;;;;;13.68;100.00;94480.94;5062307;28;20024;-84
2023/06/05 01:14:32;;;;;;;8.45;4.38;;;;;;;14.03;100.00;94485.19;5062024;28;20430;-81
2023/06/05 01:17:00;;;;;;;7.80;4.13;;;;;;;13.67;100.00;94479.34;5045536;28;20025;-84
2023/06/05 01:19:28;;;;;;;8.48;4.68;;;;;;;13.56;100.00;94476.09;5045601;28;20369;-81
2023/06/05 01:22:12;;;;;;;14.63;4.72;;;;;;;13.32;100.00;94476.06;5045647;28;20451;-81
2023/06/05 01:24:40;;;;;;;7.97;4.32;;;;;;;13.14;100.00;94474.97;5079671;28;20347;-84
2023/06/05 01:27:15;;;;;;;8.68;3.70;;;;;;;13.26;100.00;94480.59;5079374;28;20025;-83
2023/06/05 01:30:06;;;;;;;8.75;3.90;;;;;;;13.71;100.00;94472.44;5061824;28;20020;-84
2023/06/05 01:35:55;;;;;;;8.85;3.35;;;;;;;13.95;100.00;94465.53;5079380;28;20031;-83
2023/06/05 01:38:40;;;;;;;5.88;3.63;;;;;;;13.27;100.00;94468.25;5061910;28;20021;-83
2023/06/05 01:41:07;;;;;;;5.57;3.38;;;;;;;13.68;100.00;94462.50;5044840;28;20127;-83
2023/06/05 01:43:32;;;;;;;5.55;3.03;;;;;;;13.89;100.00;94467.47;5061528;28;20021;-83
2023/06/05 01:48:43;;;;;;;5.72;3.10;;;;;;;13.93;100.00;94452.69;5064209;28;20035;-81
2023/06/05 01:51:09;;;;;;;6.60;3.20;;;;;;;14.02;100.00;94459.91;5061225;28;20025;-83
2023/06/05 01:53:34;;;;;;;9.55;3.20;;;;;;;14.03;100.00;94459.63;5079134;28;20392;-81
2023/06/05 01:56:00;;;;;;;10.73;3.95;;;;;;;13.76;100.00;94458.44;5061234;28;20107;-83
2023/06/05 01:58:45;;;;;;;6.15;3.60;;;;;;;14.08;100.00;94459.56;5044813;28;20337;-84
2023/06/05 02:01:10;;;;;;;7.60;3.42;;;;;;;14.05;100.00;94462.78;5078385;28;20040;-84
2023/06/05 02:03:35;;;;;;;5.57;3.58;;;;;;;13.83;100.00;94458.09;5061106;28;20021;-84
2023/06/05 02:06:20;;;;;;;8.13;3.72;;;;;;;14.12;100.00;94460.53;5079047;28;20036;-83
2023/06/05 02:08:45;;;;;;;5.45;3.42;;;;;;;14.09;100.00;94460.34;5078875;28;20070;-83
2023/06/05 02:11:11;;;;;;;8.23;3.10;;;;;;;14.32;100.00;94460.50;5044573;28;20109;-84
2023/06/05 02:13:40;;;;;;;7.32;3.03;;;;;;;14.20;100.00;94464.41;5061003;28;20043;-84
2023/06/05 02:19:08;;;;;;;9.57;3.30;;;;;;;14.05;100.00;94446.16;5078699;28;20032;-81
2023/06/05 02:21:53;;;;;;;4.25;3.05;;;;;;;14.26;100.00;94444.78;5060773;28;20334;-81
2023/06/05 02:24:18;;;;;;;6.10;3.10;;;;;;;14.35;100.00;94446.78;5078635;28;20027;-82
2023/06/05 02:26:44;;;;;;;4.70;3.00;;;;;;;14.46;100.00;94453.44;5043979;28;20024;-83
2023/06/05 02:29:10;;;;;;;5.68;3.05;;;;;;;14.37;100.00;94448.03;5060618;28;20028;-83
2023/06/05 02:31:36;;;;;;;6.70;3.10;;;;;;;14.45;100.00;94441.31;5044227;28;20025;-83
2023/06/05 02:34:02;;;;;;;7.28;3.08;;;;;;;14.49;100.00;94437.06;5060683;28;20020;-83
2023/06/05 02:36:32;;;;;;;7.90;2.97;;;;;;;14.47;100.00;94441.81;5060644;28;20024;-84
2023/06/05 02:38:58;;;;;;;5.35;3.20;;;;;;;14.59;100.00;94440.56;5061242;28;20031;-83
2023/06/05 02:41:24;;;;;;;8.23;3.58;;;;;;;14.05;100.00;94436.44;5044010;28;20028;-83
2023/06/05 02:43:50;;;;;;;5.90;3.40;;;;;;;14.40;100.00;94439.53;5044037;28;20098;-83
2023/06/05 02:46:15;;;;;;;8.93;3.20;;;;;;;14.48;100.00;94437.31;5057900;28;20024;-83
2023/06/05 02:48:40;;;;;;;7.57;3.70;;;;;;;14.52;100.00;94438.31;5059558;28;20032;-83
2023/06/05 02:51:25;;;;;;;5.60;3.35;;;;;;;14.39;100.00;94439.84;5043954;28;20024;-83
2023/06/05 02:53:50;;;;;;;5.75;3.60;;;;;;;13.53;100.00;94431.88;5078035;28;20060;-83
2023/06/05 02:56:16;;;;;;;11.25;4.15;;;;;;;13.35;100.00;94430.78;5060064;28;20107;-83
2023/06/05 02:58:43;;;;;;;8.98;3.88;;;;;;;13.85;100.00;94435.66;5050564;28;20446;-83
2023/06/05 03:01:34;;;;;;;7.68;3.10;;;;;;;14.17;100.00;94438.59;5042877;28;20031;-83
2023/06/05 03:04:02;;;;;;;10.13;4.00;;;;;;;13.64;100.00;94429.13;5073536;28;20516;-83
2023/06/05 03:06:47;;;;;;;12.00;3.90;;;;;;;13.34;100.00;94428.44;5036009;28;20036;-83
2023/06/05 03:09:13;;;;;;;11.48;4.63;;;;;;;13.13;100.00;94432.09;5052754;28;20028;-83
2023/06/05 03:11:38;;;;;;;6.45;3.72;;;;;;;13.25;100.00;94426.41;5057838;28;20078;-83
2023/06/05 03:14:09;;;;;;;11.80;4.00;;;;;;;13.70;100.00;94428.75;5022436;28;20032;-83
2023/06/05 03:16:41;;;;;;;10.32;3.30;;;;;;;13.97;100.00;94429.97;5057502;28;20025;-83
2023/06/05 03:19:06;;;;;;;9.45;3.47;;;;;;;14.23;100.00;94434.03;5040801;28;20021;-83
2023/06/05 03:21:32;;;;;;;7.93;3.30;;;;;;;14.37;100.00;94434.09;5023380;28;20445;-83
2023/06/05 03:24:16;;;;;;;10.50;3.08;;;;;;;14.50;100.00;94435.97;5039869;28;20025;-83
2023/06/05 03:26:43;;;;;;;6.30;3.10;;;;;;;14.54;100.00;94429.03;5057029;28;20529;-83
2023/06/05 03:29:10;;;;;;;11.40;3.85;;;;;;;14.69;100.00;94435.13;5058240;28;20032;-83
2023/06/05 03:31:36;;;;;;;8.68;2.72;;;;;;;14.67;100.00;94437.28;5059379;28;20029;-83
2023/06/05 03:34:26;;;;;;;5.15;2.38;;;;;;;14.77;100.00;94431.06;5042899;28;20030;-83
2023/06/05 03:37:11;;;;;;;15.63;3.28;;;;;;;14.67;100.00;94429.38;5076945;28;20388;-83
2023/06/05 03:39:37;;;;;;;16.58;3.50;;;;;;;13.75;100.00;94429.75;5076919;28;20031;-83
2023/06/05 03:42:02;;;;;;;9.32;3.90;;;;;;;13.48;100.00;94426.69;5042808;28;20017;-83
2023/06/05 03:44:30;;;;;;;6.65;4.05;;;;;;;13.82;100.00;94428.31;5077093;28;20020;-83
2023/06/05 03:46:55;;;;;;;7.63;4.18;;;;;;;13.36;100.00;94428.94;5058994;28;20031;-83
2023/06/05 03:52:04;;;;;;;8.18;4.20;;;;;;;13.79;100.00;94433.41;5061666;28;20031;-83
2023/06/05 03:54:53;;;;;;;9.43;3.28;;;;;;;14.23;100.00;94432.19;5076918;28;20029;-83
2023/06/05 03:57:20;;;;;;;13.38;3.20;;;;;;;14.41;100.00;94432.44;5076696;28;20384;-83
2023/06/05 04:05:14;;;;;;;7.72;3.20;;;;;;;14.39;100.00;94434.56;5061577;28;20119;-83
2023/06/05 04:07:39;;;;;;;9.55;3.78;;;;;;;14.70;100.00;94439.31;5058611;28;20107;-83
2023/06/05 04:10:24;;;;;;;10.18;3.70;;;;;;;14.11;100.00;94439.75;5058840;28;20082;-83
2023/06/05 04:12:49;;;;;;;7.25;4.03;;;;;;;13.69;100.00;94429.03;5042312;28;20040;-83
2023/06/05 04:15:15;;;;;;;9.90;4.03;;;;;;;13.89;100.00;94435.88;5058663;28;20103;-83
2023/06/05 04:17:40;;;;;;;7.00;3.33;;;;;;;14.21;100.00;94436.97;5041842;28;20024;-83
2023/06/05 04:20:10;;;;;;;6.55;2.95;;;;;;;14.70;100.00;94431.41;5058568;28;20021;-83
2023/06/05 04:22:54;;;;;;;11.23;3.05;;;;;;;15.00;100.00;94439.84;5059199;28;20028;-83
2023/06/05 04:25:20;;;;;;;11.07;3.20;;;;;;;14.96;100.00;94434.38;5058266;28;20044;-83
2023/06/05 04:27:48;;;;;;;7.32;3.47;;;;;;;14.99;100.00;94433.03;5076286;28;20041;-83
2023/06/05 04:33:16;;;;;;;6.82;3.30;;;;;;;15.06;100.00;94436.06;5054364;28;20530;-83
2023/06/05 04:35:42;;;;;;;7.40;3.33;;;;;;;15.10;100.00;94444.94;5058492;28;20032;-84
2023/06/05 04:38:08;;;;;;;6.00;3.20;;;;;;;15.08;100.00;94441.03;5076386;28;20040;-84
2023/06/05 04:40:33;;;;;;;8.85;3.42;;;;;;;15.23;100.00;94442.59;5058646;28;20445;-84
2023/06/05 04:45:43;;;;;;;4.85;3.00;;;;;;;15.00;100.00;94439.84;5061136;28;20060;-84
2023/06/05 04:48:08;;;;;;;6.78;3.70;;;;;;;15.07;100.00;94440.25;5040207;28;20033;-84
2023/06/05 04:50:53;;;;;;;7.82;3.72;;;;;;;14.91;100.00;94436.31;5038475;28;20033;-84
2023/06/05 04:53:37;;;;;;;73.60;4.90;;;;;;;14.03;100.00;94435.13;5022263;28;20094;-84
2023/06/05 04:56:21;;;;;;;15.30;3.75;;;;;;;13.75;100.00;94433.19;5055953;28;20510;-84
2023/06/05 05:04:15;;;;;;;11.27;5.03;;;;;;;13.81;100.00;94428.63;5060715;28;20040;-84
2023/06/05 05:06:47;;;;;;;7.78;4.65;;;;;;;13.91;100.00;94427.69;5058403;28;20032;-84
2023/06/05 05:09:12;;;;;;;13.23;5.22;;;;;;;13.83;100.00;94424.63;5038406;28;20040;-84
2023/06/05 05:11:41;;;;;;;6.75;4.10;;;;;;;14.13;100.00;94427.09;5038385;28;20025;-84
2023/06/05 05:14:06;;;;;;;12.18;4.47;;;;;;;14.34;100.00;94437.28;5038394;28;20063;-84
2023/06/05 05:16:50;;;;;;;9.77;5.10;;;;;;;14.17;100.00;94435.97;5055882;28;20104;-82
2023/06/05 05:19:16;;;;;;;19.10;5.57;;;;;;;13.95;100.00;94437.38;5038226;28;20033;-83
2023/06/05 05:22:00;;;;;;;10.63;4.82;;;;;;;14.24;100.00;94436.41;5038393;28;20086;-84
2023/06/05 05:25:06;;;;;;;9.73;4.88;;;;;;;15.24;100.00;94441.53;5038447;28;20032;-87
2023/06/05 05:30:15;;;;;;;9.10;4.07;;;;;;;15.81;100.00;94441.09;5060774;28;20354;-84
2023/06/05 05:32:40;;;;;;;6.32;4.10;;;;;;;15.88;100.00;94442.56;5050357;28;20033;-84
2023/06/05 05:35:24;;;;;;;5.50;3.55;;;;;;;16.22;100.00;94442.06;5038091;28;20028;-85
2023/06/05 05:37:50;;;;;;;8.88;3.80;;;;;;;16.42;100.00;94441.88;5059411;28;20115;-84
2023/06/05 05:43:00;;;;;;;8.80;3.72;;;;;;;16.40;100.00;94445.59;5064094;28;20131;-84
2023/06/05 05:45:25;;;;;;;8.60;3.05;;;;;;;16.63;100.00;94450.06;5079071;28;20438;-84
2023/06/05 05:50:35;;;;;;;6.85;3.28;;;;;;;16.45;100.00;94449.97;5064126;28;20039;-83
2023/06/05 05:53:00;;;;;;;8.18;4.05;;;;;;;16.18;100.00;94445.63;5061299;28;20433;-84
2023/06/05 05:55:26;;;;;;;9.55;3.10;;;;;;;16.29;100.00;94446.94;5044828;28;20032;-84
2023/06/05 05:57:51;;;;;;;7.32;3.53;;;;;;;16.15;100.00;94448.88;5079037;28;20411;-84
2023/06/05 06:00:35;;;;;;;11.85;4.15;;;;;;;16.15;100.00;94444.34;5060986;28;20065;-83
2023/06/05 06:03:01;;;;;;;9.60;3.95;;;;;;;16.20;100.00;94446.09;5055593;28;20434;-84
2023/06/05 06:05:45;;;;;;;8.75;4.07;;;;;;;16.45;100.00;94447.34;5044639;28;20028;-84
2023/06/05 06:08:11;;;;;;;10.98;3.95;;;;;;;16.75;100.00;94445.00;5024573;28;20032;-84
2023/06/05 06:13:21;;;;;;;5.85;3.38;;;;;;;17.02;100.00;94453.88;5043728;28;20125;-83
2023/06/05 06:15:46;;;;;;;7.28;3.60;;;;;;;16.86;100.00;94450.03;5047601;28;20028;-84
2023/06/05 06:18:31;;;;;;;5.78;3.63;;;;;;;16.65;100.00;94446.06;5060893;28;20054;-83
2023/06/05 06:20:56;;;;;;;7.55;3.08;;;;;;;16.99;100.00;94449.19;5078702;28;20060;-84
2023/06/05 06:23:22;;;;;;;11.23;3.40;;;;;;;16.41;100.00;94451.69;5044193;28;20055;-84
2023/06/05 06:26:07;;;;;;;8.45;3.30;;;;;;;16.74;100.00;94455.91;5044275;28;20348;-84
2023/06/05 06:28:33;;;;;;;7.35;3.20;;;;;;;16.75;100.00;94455.59;5078626;28;20074;-84
2023/06/05 06:30:58;;;;;;;11.35;3.63;;;;;;;16.10;100.00;94447.88;5044213;28;20127;-84
2023/06/05 06:33:44;;;;;;;8.45;3.80;;;;;;;16.06;100.00;94454.06;5060798;28;20454;-84
2023/06/05 06:36:10;;;;;;;6.93;3.67;;;;;;;15.53;100.00;94457.00;5059505;28;20111;-84
2023/06/05 06:41:21;;;;;;;7.45;3.53;;;;;;;17.28;100.00;94461.13;5043206;28;20095;-85
2023/06/05 06:43:46;;;;;;;8.10;3.80;;;;;;;16.34;100.00;94457.38;5040949;28;20021;-85
2023/06/05 06:46:12;;;;;;;7.90;3.40;;;;;;;16.53;100.00;94464.34;5057918;28;20396;-85
2023/06/05 06:48:37;;;;;;;6.57;3.42;;;;;;;16.96;100.00;94463.00;5040191;28;20029;-85
2023/06/05 06:51:03;;;;;;;8.50;3.72;;;;;;;17.08;100.00;94467.75;5040510;28;20031;-85
2023/06/05 06:53:29;;;;;;;7.28;3.83;;;;;;;17.42;100.00;94466.28;5058083;28;20016;-84
2023/06/05 06:55:55;;;;;;;5.85;3.28;;;;;;;17.07;100.00;94476.78;5023516;28;20027;-85
2023/06/05 06:58:20;;;;;;;9.77;3.60;;;;;;;16.69;100.00;94475.31;5040160;28;20411;-85
2023/06/05 07:00:47;;;;;;;6.32;3.33;;;;;;;16.62;100.00;94480.25;5040221;28;20060;-84
2023/06/05 07:03:12;;;;;;;8.48;3.70;;;;;;;16.23;100.00;94472.72;5040251;28;20021;-85
2023/06/05 07:05:38;;;;;;;46.65;5.22;;;;;;;16.03;100.00;94468.69;5023905;28;20032;-85
2023/06/05 07:08:03;;;;;;;8.63;3.80;;;;;;;16.60;100.00;94474.50;5023569;28;20040;-84
2023/06/05 07:10:29;;;;;;;10.10;3.05;;;;;;;16.67;100.00;94470.31;5023701;28;20072;-84
2023/06/05 07:12:54;;;;;;;4.25;3.35;;;;;;;17.07;100.00;94472.28;5039975;28;20075;-85
2023/06/05 07:18:23;;;;;;;6.30;3.70;;;;;;;16.85;100.00;94469.66;5057731;28;20028;-85
2023/06/05 07:20:48;;;;;;;5.70;3.60;;;;;;;17.03;100.00;94473.94;5023453;28;20039;-85
2023/06/05 07:23:19;;;;;;;5.75;3.03;;;;;;;16.88;100.00;94475.13;5023612;28;20029;-85
2023/06/05 07:25:45;;;;;;;4.63;2.88;;;;;;;17.35;100.00;94472.03;5056314;28;20036;-85
2023/06/05 07:28:15;;;;;;;6.63;2.70;;;;;;;18.60;100.00;94473.66;5023474;28;20434;-84
2023/06/05 07:30:43;;;;;;;6.80;2.67;;;;;;;18.89;100.00;94472.97;5023879;28;20029;-84
2023/06/05 07:33:09;;;;;;;3.42;2.38;;;;;;;19.33;100.00;94472.06;5039818;28;20060;-85
2023/06/05 07:35:34;;;;;;;3.90;2.72;;;;;;;18.51;100.00;94471.03;5039585;28;20393;-85
2023/06/05 07:38:00;;;;;;;4.70;2.42;;;;;;;19.05;100.00;94470.59;5023252;28;20020;-84
2023/06/05 07:40:25;;;;;;;6.85;2.80;;;;;;;18.33;100.00;94462.31;5039418;28;20347;-85
2023/06/05 07:42:51;;;;;;;5.05;2.80;;;;;;;18.13;100.00;94463.72;5023093;28;20031;-85
2023/06/05 07:45:16;;;;;;;4.60;3.08;;;;;;;18.55;100.00;94464.00;5023091;28;20029;-84
2023/06/05 07:47:42;;;;;;;5.28;2.97;;;;;;;17.84;100.00;94470.41;5039376;28;20028;-85
2023/06/05 07:50:07;;;;;;;6.35;3.28;;;;;;;18.15;100.00;94462.34;5039338;28;20040;-84
2023/06/05 07:52:33;;;;;;;9.27;3.25;;;;;;;18.81;100.00;94468.47;5039181;28;20466;-85
2023/06/05 07:54:59;;;;;;;4.82;2.80;;;;;;;17.90;100.00;94459.34;5022865;28;20040;-84
2023/06/05 07:57:43;;;;;;;4.00;2.85;;;;;;;19.28;100.00;94470.34;5022809;28;20025;-85
2023/06/05 08:00:27;;;;;;;7.00;3.22;;;;;;;19.33;100.00;94475.47;5038720;28;20033;-84
2023/06/05 08:02:53;;;;;;;4.47;2.55;;;;;;;18.53;100.00;94462.78;5056852;28;20036;-85
2023/06/05 08:05:19;;;;;;;2.92;2.40;;;;;;;18.93;100.00;94471.25;5039181;28;20032;-85
2023/06/05 08:08:03;;;;;;;9.05;2.83;;;;;;;18.32;100.00;94463.41;5022593;28;20029;-85
2023/06/05 08:10:47;;;;;;;4.47;3.00;;;;;;;18.61;100.00;94476.03;5038858;28;20036;-85
2023/06/05 08:15:57;;;;;;;9.95;3.13;;;;;;;16.70;100.00;94470.81;5041465;28;20040;-85
2023/06/05 08:18:22;;;;;;;5.70;2.70;;;;;;;16.36;100.00;94463.16;5038860;28;20029;-85
2023/06/05 08:23:50;;;;;;;7.40;3.42;;;;;;;16.08;100.00;94470.44;5056545;28;20098;-85
2023/06/05 08:26:18;;;;;;;5.50;3.22;;;;;;;16.99;100.00;94466.88;5038813;28;20415;-84
2023/06/05 08:28:44;;;;;;;5.53;3.35;;;;;;;16.78;100.00;94470.84;5022415;28;20036;-84
2023/06/05 08:33:53;;;;;;;;;;;;;;;17.32;100.00;94464.69;5041747;28;20044;-84
2023/06/05 08:36:18;;;;;;;6.00;3.78;;;;;;;17.02;100.00;94469.75;5055070;28;19909;-85
2023/06/05 08:39:04;;;;;;;8.73;3.85;;;;;;;17.31;100.00;94470.31;5038643;28;20040;-84
2023/06/05 08:41:30;;;;;;;7.65;3.97;;;;;;;17.19;100.00;94476.97;5022491;28;20033;-85
2023/06/05 08:46:49;;;;;;;4.38;3.33;;;;;;;17.62;100.00;94472.09;5041089;28;20036;-85
2023/06/05 08:49:17;;;;;;;5.47;3.85;;;;;;;17.74;100.00;94471.50;5038607;28;20036;-85
2023/06/05 08:51:43;;;;;;;5.03;3.67;;;;;;;17.69;100.00;94466.34;5038495;28;20024;-85
2023/06/05 08:59:40;;;;;;;6.00;3.25;;;;;;;17.86;100.00;94462.91;5056096;28;20461;-84
2023/06/05 09:02:07;;;;;;;7.18;3.20;;;;;;;18.46;100.00;94461.38;5039153;28;20060;-84
2023/06/05 09:04:33;;;;;;;7.72;3.70;;;;;;;17.47;100.00;94463.50;5056169;28;20350;-85
2023/06/05 09:07:18;;;;;;;5.03;3.25;;;;;;;17.73;100.00;94465.44;5055963;28;20037;-85
2023/06/05 09:09:43;;;;;;;6.35;3.22;;;;;;;17.74;100.00;94466.97;5038634;28;20094;-84
2023/06/05 09:12:09;;;;;;;6.70;2.90;;;;;;;18.27;100.00;94467.00;5024903;28;20033;-84
2023/06/05 09:14:35;;;;;;;5.95;2.80;;;;;;;18.92;100.00;94471.53;5025916;28;20033;-84
2023/06/05 09:17:02;;;;;;;4.60;2.58;;;;;;;18.83;100.00;94473.47;5042041;28;20495;-85
2023/06/05 09:22:33;;;;;;;3.58;2.40;;;;;;;18.84;100.00;94472.38;5044745;28;20114;-85
2023/06/05 09:25:01;;;;;;;3.30;1.88;;;;;;;19.03;100.00;94474.69;5031814;28;20353;-84
2023/06/05 09:27:26;;;;;;;6.20;2.70;;;;;;;19.42;100.00;94482.63;5030692;28;20036;-83
2023/06/05 09:30:01;;;;;;;5.07;2.33;;;;;;;19.29;100.00;94479.88;5025581;28;20031;-83
2023/06/05 09:32:27;;;;;;;3.42;2.00;;;;;;;19.20;100.00;94479.91;5041722;28;20029;-83
2023/06/05 09:35:05;;;;;;;4.15;2.45;;;;;;;18.62;100.00;94476.78;5041807;28;20039;-84
2023/06/05 09:37:35;;;;;;;4.13;2.05;;;;;;;18.72;100.00;94471.16;5026559;28;20033;-84
2023/06/05 09:40:00;;;;;;;4.63;2.50;;;;;;;18.54;100.00;94464.34;5041841;28;20033;-85
2023/06/05 09:42:32;;;;;;;3.92;2.80;;;;;;;18.82;100.00;94467.38;5041626;28;20032;-85
2023/06/05 09:44:59;;;;;;;4.78;2.45;;;;;;;19.16;100.00;94475.56;5025236;28;20438;-85
2023/06/05 09:50:39;;;;;;;3.22;2.35;;;;;;;18.84;100.00;94465.16;5059398;28;20047;-84
2023/06/05 09:53:05;;;;;;;3.72;2.28;;;;;;;17.69;100.00;94461.06;5059270;28;20033;-85
2023/06/05 09:55:31;;;;;;;6.35;2.80;;;;;;;18.74;100.00;94463.66;5026259;28;20036;-84
2023/06/05 09:58:16;;;;;;;2.85;2.22;;;;;;;18.59;100.00;94461.50;5061280;28;20394;-84
2023/06/05 10:00:42;;;;;;;5.10;2.00;;;;;;;19.53;100.00;94464.44;5060989;28;20115;-84
2023/06/05 10:06:02;;;;;;;;;;;;;;;19.82;100.00;94468.16;5063980;28;20081;-84
2023/06/05 10:11:30;;;;;;;2.83;1.92;;;;;;;19.69;100.00;94469.97;5063644;28;20170;-84
2023/06/05 10:14:34;;;;;;;2.55;1.80;;;;;;;19.84;100.00;94464.09;5061243;28;20024;-85
2023/06/05 10:17:01;;;;;;;4.95;2.28;;;;;;;18.87;100.00;94464.56;5078976;28;20333;-84
2023/06/05 10:19:26;;;;;;;3.97;2.35;;;;;;;17.99;100.00;94464.63;5060840;28;20438;-84
2023/06/05 10:21:52;;;;;;;7.93;2.75;;;;;;;17.32;100.00;94462.06;5060827;28;20028;-84
2023/06/05 10:24:38;;;;;;;13.23;2.90;;;;;;;17.16;100.00;94461.72;5044464;28;20032;-84
2023/06/05 10:27:42;;;;;;;2.45;1.90;;;;;;;17.69;100.00;94464.47;5075337;28;20043;-84
2023/06/05 10:30:35;;;;;;;2.03;1.50;;;;;;;18.45;100.00;94462.47;5060982;28;20036;-84
2023/06/05 10:33:38;;;;;;;12.65;1.88;;;;;;;17.78;100.00;94457.31;5060863;28;20394;-84
2023/06/05 10:36:20;;;;;;;1.80;1.48;;;;;;;17.41;100.00;94456.00;5078366;28;20032;-84
2023/06/05 10:39:04;;;;;;;5.60;1.83;;;;;;;18.18;100.00;94461.72;5044081;28;20036;-84
2023/06/05 10:41:30;;;;;;;3.15;1.80;;;;;;;17.86;100.00;94453.09;5078652;28;20033;-84
2023/06/05 10:46:39;;;;;;;1.73;1.45;;;;;;;18.09;100.00;94463.59;5062996;28;20040;-84
2023/06/05 10:49:17;;;;;;;2.72;1.58;;;;;;;17.60;100.00;94459.16;5060579;28;20032;-84
2023/06/05 10:51:47;;;;;;;2.47;1.63;;;;;;;18.47;100.00;94457.63;5060488;28;20038;-84
2023/06/05 10:58:09;;;;;;;13.70;2.50;;;;;;;16.99;100.00;94451.00;5077999;28;20110;-84
2023/06/05 11:00:36;;;;;;;2.45;2.10;;;;;;;17.75;100.00;94457.16;5044108;28;20029;-84
2023/06/05 11:03:01;;;;;;;4.88;2.70;;;;;;;17.90;100.00;94455.94;5043571;28;20028;-84
2023/06/05 11:05:28;;;;;;;4.15;2.40;;;;;;;17.52;100.00;94452.75;5059988;28;20032;-84
2023/06/05 11:08:16;;;;;;;8.63;2.35;;;;;;;17.62;100.00;94453.56;5043504;28;20068;-84
2023/06/05 11:11:01;;;;;;;5.40;2.50;;;;;;;17.49;100.00;94449.94;5043497;28;20028;-84
2023/06/05 11:13:56;;;;;;;3.63;2.53;;;;;;;18.39;100.00;94455.78;5059462;28;20041;-84
2023/06/05 11:16:32;;;;;;;4.53;2.45;;;;;;;18.18;100.00;94453.00;5060059;28;20396;-85
2023/06/05 11:19:35;;;;;;;4.47;2.70;;;;;;;18.61;100.00;94454.78;5043080;28;20028;-84
2023/06/05 11:22:29;;;;;;;3.42;2.28;;;;;;;18.65;100.00;94454.94;5077571;28;20031;-84
2023/06/05 11:25:14;;;;;;;4.70;2.10;;;;;;;17.78;100.00;94453.88;5077521;28;20028;-84
2023/06/05 11:27:43;;;;;;;3.35;2.20;;;;;;;17.14;100.00;94449.84;5059644;28;20445;-84
2023/06/05 11:30:12;;;;;;;4.53;2.45;;;;;;;17.19;100.00;94452.34;5056648;28;20056;-84
2023/06/05 11:32:58;;;;;;;3.53;2.22;;;;;;;18.20;100.00;94448.91;5043080;28;20422;-84
2023/06/05 11:35:28;;;;;;;7.32;2.85;;;;;;;17.14;100.00;94447.22;5063121;28;20030;-85
2023/06/05 11:38:31;;;;;;;3.63;2.65;;;;;;;17.67;100.00;94451.53;5055943;28;20025;-84
2023/06/05 11:40:57;;;;;;;5.63;3.13;;;;;;;16.74;100.00;94453.25;5057293;28;20028;-84
2023/06/05 11:43:22;;;;;;;3.70;3.05;;;;;;;17.19;100.00;94441.78;5023080;28;20036;-84
2023/06/05 11:45:51;;;;;;;4.80;2.75;;;;;;;18.15;100.00;94443.78;5039596;28;20032;-84
2023/06/05 11:48:16;;;;;;;4.90;2.35;;;;;;;19.21;100.00;94446.94;5039409;28;20423;-84
2023/06/05 11:50:58;;;;;;;4.30;2.67;;;;;;;17.55;100.00;94438.13;5039218;28;20040;-84
2023/06/05 11:53:25;;;;;;;5.07;2.78;;;;;;;19.06;100.00;94442.94;5039248;28;20025;-84
2023/06/05 11:55:55;;;;;;;4.28;2.92;;;;;;;18.68;100.00;94442.91;5039117;28;20036;-84
2023/06/05 11:58:24;;;;;;;5.60;3.33;;;;;;;18.09;100.00;94440.50;5022961;28;20021;-84
2023/06/05 12:00:50;;;;;;;9.65;3.35;;;;;;;18.18;100.00;94435.19;5039001;28;20033;-84
2023/06/05 12:09:07;;;;;;;4.22;3.30;;;;;;;18.51;100.00;94432.03;5048197;28;20519;-84
2023/06/05 12:11:33;;;;;;;4.03;2.75;;;;;;;18.23;100.00;94428.94;5038770;28;20028;-84
2023/06/05 12:13:58;;;;;;;3.53;3.03;;;;;;;18.19;100.00;94428.03;5039049;28;20024;-84
2023/06/05 12:16:31;;;;;;;6.78;3.17;;;;;;;18.55;100.00;94424.19;5056526;28;20066;-84
2023/06/05 12:21:41;;;;;;;6.28;3.55;;;;;;;19.35;100.00;94427.34;5061454;28;20353;-84
2023/06/05 12:24:28;;;;;;;6.57;3.45;;;;;;;18.46;100.00;94429.53;5058581;28;20111;-84
2023/06/05 12:26:58;;;;;;;4.90;2.92;;;;;;;19.57;100.00;94420.97;5076437;28;20035;-84
2023/06/05 12:29:28;;;;;;;10.35;2.80;;;;;;;18.76;100.00;94426.94;5058998;28;20050;-84
2023/06/05 12:31:56;;;;;;;8.23;3.13;;;;;;;17.99;100.00;94418.81;5058880;28;20131;-84
2023/06/05 12:34:44;;;;;;;2.88;2.42;;;;;;;18.44;100.00;94428.31;5045086;28;20029;-83
2023/06/05 12:37:12;;;;;;;8.90;3.05;;;;;;;17.92;100.00;94424.59;5040405;28;20339;-83
2023/06/05 12:39:38;;;;;;;3.10;2.40;;;;;;;18.29;100.00;94419.75;5038040;28;20038;-83
2023/06/05 12:42:04;;;;;;;3.72;2.78;;;;;;;18.35;100.00;94425.66;5058538;28;20111;-83
2023/06/05 12:44:48;;;;;;;4.35;2.20;;;;;;;19.17;100.00;94422.13;5058970;28;20384;-83
2023/06/05 12:47:14;;;;;;;8.57;2.80;;;;;;;17.55;100.00;94416.94;5062576;28;20103;-83
2023/06/05 12:52:27;;;;;;;3.22;1.50;;;;;;;17.70;100.00;94414.91;5047687;28;20078;-87
2023/06/05 12:54:56;;;;;;;2.58;1.40;;;;;;;18.42;100.00;94418.00;5049573;28;20035;-87
2023/06/05 12:57:49;;;;;;;4.47;1.80;;;;;;;17.51;100.00;94416.00;5027382;28;20364;-88
2023/06/05 13:01:13;;;;;;;;;;;;;;;;;;;;;
2023/06/05 13:04:10;;;;;;;;;;;;;;;;;;;;;
2023/06/05 13:10:22;;;;;;;5.63;2.97;;;;;;;18.85;100.00;94420.84;5050942;28;20068;-90
2023/06/05 13:13:39;;;;;;;;;;;;;;;;;;;;;
2023/06/05 13:19:07;;;;;;;6.85;5.70;;;;;;;16.74;100.00;94421.50;5059923;28;20812;-85
2023/06/05 13:21:51;;;;;;;7.45;5.65;;;;;;;17.20;100.00;94417.66;5027078;28;20025;-84
2023/06/05 13:24:17;;;;;;;9.27;6.80;;;;;;;16.86;100.00;94416.44;5037320;28;20028;-84
2023/06/05 13:26:46;;;;;;;9.02;6.68;;;;;;;17.16;100.00;94424.66;5061384;28;20025;-86
2023/06/05 13:29:30;;;;;;;8.35;5.93;;;;;;;17.75;100.00;94418.19;5062399;28;20032;-88
2023/06/05 13:31:58;;;;;;;7.15;5.82;;;;;;;18.08;100.00;94416.97;5079771;28;20029;-86